Time;durP1;ratioP1;P1;durP2;ratioP2;P2;SDS_P1;SDS_P2;PMS_P1;PMS_P2;Temp;Humidity;BMP_temperature;BMP_pressure;BME280_temperature;BME280_humidity;BME280_pressure;Samples;Min_cycle;Max_cycle;Signal;HPM_P1;HPM_P2
2022/06/24 00:01:12;;;;;;;;;;;23.70;49.90;;;;;;5089301;28;20339;-56
2022/06/24 00:03:39;;;;;;;;;;;23.70;49.90;;;;;;5103714;28;20188;-56
2022/06/24 00:06:08;;;;;;;;;;;23.70;49.90;;;;;;5106750;27;19919;-55
2022/06/24 00:08:46;;;;;;;;;;;23.70;49.90;;;;;;5125276;27;19972;-56
2022/06/24 00:11:15;;;;;;;;;;;23.70;49.90;;;;;;5093011;28;19970;-56
2022/06/24 00:13:43;;;;;;;;;;;23.70;49.90;;;;;;5101515;28;19949;-56
2022/06/24 00:16:10;;;;;;;;;;;23.70;49.80;;;;;;5106340;28;19923;-56
2022/06/24 00:18:37;;;;;;;;;;;23.70;49.90;;;;;;5112408;27;19923;-54
2022/06/24 00:21:11;;;;;;;;;;;23.70;49.90;;;;;;5110073;28;20295;-55
2022/06/24 00:23:38;;;;;;;;;;;23.60;49.70;;;;;;5093371;28;19965;-56
2022/06/24 00:26:05;;;;;;;;;;;23.70;49.90;;;;;;5088072;28;19956;-55
2022/06/24 00:28:33;;;;;;;;;;;23.70;49.90;;;;;;5109122;27;19943;-58
2022/06/24 00:31:00;;;;;;;;;;;23.70;49.80;;;;;;5092906;28;20089;-56
2022/06/24 00:33:27;;;;;;;;;;;23.60;50.30;;;;;;5110974;27;20032;-55
2022/06/24 00:35:54;;;;;;;;;;;23.60;49.80;;;;;;5089942;28;19920;-59
2022/06/24 00:38:25;;;;;;;;;;;23.60;49.70;;;;;;5108505;28;19924;-56
2022/06/24 00:40:51;;;;;;;;;;;23.60;49.70;;;;;;5108594;28;19924;-56
2022/06/24 00:43:23;;;;;;;;;;;23.60;49.70;;;;;;5092222;27;19932;-56
2022/06/24 00:45:52;;;;;;;;;;;23.60;49.70;;;;;;5106884;28;19931;-55
2022/06/24 00:48:19;;;;;;;;;;;23.60;49.60;;;;;;5110233;28;20006;-57
2022/06/24 00:50:45;;;;;;;;;;;23.60;49.60;;;;;;5126750;27;19927;-56
2022/06/24 00:53:13;;;;;;;;;;;23.60;49.60;;;;;;5111159;27;19920;-57
2022/06/24 00:55:41;;;;;;;;;;;23.60;49.60;;;;;;5076326;27;19924;-56
2022/06/24 00:58:12;;;;;;;;;;;23.60;49.60;;;;;;5109893;27;19965;-56
2022/06/24 01:00:38;;;;;;;;;;;23.60;49.60;;;;;;5108053;27;19927;-56
2022/06/24 01:03:07;;;;;;;;;;;23.60;49.60;;;;;;5107106;28;19920;-56
2022/06/24 01:05:33;;;;;;;;;;;23.60;49.60;;;;;;5107112;27;19972;-56
2022/06/24 01:08:07;;;;;;;;;;;23.60;49.50;;;;;;5110610;27;19924;-56
2022/06/24 01:10:34;;;;;;;;;;;23.60;50.10;;;;;;5110460;27;20017;-56
2022/06/24 01:13:01;;;;;;;;;;;23.60;49.50;;;;;;5109100;28;19927;-55
2022/06/24 01:15:28;;;;;;;;;;;23.60;49.50;;;;;;5090888;28;19976;-55
2022/06/24 01:17:54;;;;;;;;;;;23.60;49.50;;;;;;5090413;28;19973;-54
2022/06/24 01:20:23;;;;;;;;;;;23.60;49.50;;;;;;5092191;28;19919;-56
2022/06/24 01:22:51;;;;;;;;;;;23.60;49.40;;;;;;5090468;28;20409;-56
2022/06/24 01:25:17;;;;;;;;;;;23.60;49.40;;;;;;5090035;27;19955;-56
2022/06/24 01:27:44;;;;;;;;;;;23.60;49.40;;;;;;5105902;28;19919;-56
2022/06/24 01:30:11;;;;;;;;;;;23.60;49.40;;;;;;5108804;27;19920;-55
2022/06/24 01:32:38;;;;;;;;;;;23.60;49.40;;;;;;5110123;27;19920;-57
2022/06/24 01:35:05;;;;;;;;;;;23.60;49.40;;;;;;5107419;28;19972;-57
2022/06/24 01:37:32;;;;;;;;;;;23.60;49.40;;;;;;5108268;28;20252;-55
2022/06/24 01:40:00;;;;;;;;;;;23.60;49.30;;;;;;5092375;28;20022;-53
2022/06/24 01:42:27;;;;;;;;;;;23.50;49.30;;;;;;5090786;28;19919;-57
2022/06/24 01:44:55;;;;;;;;;;;23.60;49.30;;;;;;5088781;28;20314;-55
2022/06/24 01:47:27;;;;;;;;;;;23.50;49.30;;;;;;5108410;28;19976;-58
2022/06/24 01:49:54;;;;;;;;;;;23.60;49.30;;;;;;5109244;28;19920;-55
2022/06/24 01:52:21;;;;;;;;;;;23.50;49.20;;;;;;5123284;27;19931;-53
2022/06/24 01:54:48;;;;;;;;;;;23.50;49.20;;;;;;5106685;28;19952;-56
2022/06/24 01:57:18;;;;;;;;;;;23.50;49.20;;;;;;5123824;27;19942;-55
2022/06/24 01:59:44;;;;;;;;;;;23.50;49.10;;;;;;5106403;28;19926;-55
2022/06/24 02:02:12;;;;;;;;;;;23.50;49.10;;;;;;5104866;28;19936;-55
2022/06/24 02:04:39;;;;;;;;;;;23.50;49.10;;;;;;5085819;28;19970;-56
2022/06/24 02:07:08;;;;;;;;;;;23.50;49.10;;;;;;5107973;28;19919;-56
2022/06/24 02:13:26;;;;;;;;;;;23.50;49.10;;;;;;5109013;27;20000;-56
2022/06/24 02:15:08;;;;;;;;;;;23.50;49.00;;;;;;5109866;28;19920;-54
2022/06/24 02:17:35;;;;;;;;;;;23.50;49.00;;;;;;5105678;28;19972;-54
2022/06/24 02:20:01;;;;;;;;;;;23.50;49.00;;;;;;5087521;28;19985;-55
2022/06/24 02:22:28;;;;;;;;;;;23.50;49.00;;;;;;5103448;27;19920;-55
2022/06/24 02:24:55;;;;;;;;;;;23.50;49.00;;;;;;5105859;28;19977;-54
2022/06/24 02:27:24;;;;;;;;;;;23.50;49.00;;;;;;5087589;28;20348;-56
2022/06/24 02:29:51;;;;;;;;;;;23.50;49.00;;;;;;5106210;28;19927;-54
2022/06/24 02:32:17;;;;;;;;;;;23.50;48.90;;;;;;5107723;27;20340;-56
2022/06/24 02:34:44;;;;;;;;;;;23.50;48.90;;;;;;5103231;28;19938;-55
2022/06/24 02:37:11;;;;;;;;;;;23.50;48.90;;;;;;5091343;28;19953;-53
2022/06/24 02:39:38;;;;;;;;;;;23.50;48.90;;;;;;5108382;28;20002;-54
2022/06/24 02:42:05;;;;;;;;;;;23.50;48.80;;;;;;5107653;28;19994;-57
2022/06/24 02:44:33;;;;;;;;;;;23.50;48.80;;;;;;5106597;28;19966;-56
2022/06/24 02:47:00;;;;;;;;;;;23.50;48.80;;;;;;5107120;27;19920;-54
2022/06/24 02:49:26;;;;;;;;;;;23.50;48.80;;;;;;5073588;28;19920;-56
2022/06/24 02:51:53;;;;;;;;;;;23.40;48.70;;;;;;5104448;28;19965;-55
2022/06/24 02:54:20;;;;;;;;;;;23.50;48.80;;;;;;5088933;28;19927;-56
2022/06/24 02:56:47;;;;;;;;;;;23.40;48.70;;;;;;5089576;28;20352;-55
2022/06/24 02:59:14;;;;;;;;;;;23.40;48.70;;;;;;5121787;27;19932;-55
2022/06/24 03:01:43;;;;;;;;;;;23.40;48.70;;;;;;5104959;28;20314;-55
2022/06/24 03:04:09;;;;;;;;;;;23.40;48.70;;;;;;5123786;27;20364;-52
2022/06/24 03:06:36;;;;;;;;;;;23.40;48.70;;;;;;5122722;27;19919;-57
2022/06/24 03:09:03;;;;;;;;;;;23.40;48.70;;;;;;5106761;28;19923;-54
2022/06/24 03:11:30;;;;;;;;;;;23.40;48.70;;;;;;5090499;28;20400;-55
2022/06/24 03:13:56;;;;;;;;;;;23.40;48.70;;;;;;5102437;28;20364;-56
2022/06/24 03:16:23;;;;;;;;;;;23.40;48.70;;;;;;5105421;28;19923;-56
2022/06/24 03:18:51;;;;;;;;;;;23.40;48.60;;;;;;5091081;28;19961;-57
2022/06/24 03:21:18;;;;;;;;;;;23.40;48.70;;;;;;5085632;28;19923;-55
2022/06/24 03:23:44;;;;;;;;;;;23.40;48.70;;;;;;5108431;28;19977;-56
2022/06/24 03:26:11;;;;;;;;;;;23.40;48.70;;;;;;5106919;28;19980;-54
2022/06/24 03:28:38;;;;;;;;;;;23.40;48.70;;;;;;5106165;28;20011;-53
2022/06/24 03:31:05;;;;;;;;;;;23.40;48.60;;;;;;5102541;28;19981;-54
2022/06/24 03:33:32;;;;;;;;;;;23.40;48.60;;;;;;5107258;28;19932;-55
2022/06/24 03:36:00;;;;;;;;;;;23.40;48.60;;;;;;5089801;28;20018;-55
2022/06/24 03:38:26;;;;;;;;;;;23.40;48.70;;;;;;5122864;27;19920;-55
2022/06/24 03:40:53;;;;;;;;;;;23.40;48.70;;;;;;5111821;28;19945;-55
2022/06/24 03:43:20;;;;;;;;;;;23.40;48.60;;;;;;5122814;27;20306;-55
2022/06/24 03:45:47;;;;;;;;;;;23.40;48.60;;;;;;5093296;28;19927;-55
2022/06/24 03:48:13;;;;;;;;;;;23.40;48.60;;;;;;5112107;27;19926;-54
2022/06/24 03:50:40;;;;;;;;;;;23.40;48.60;;;;;;5110973;28;19964;-56
2022/06/24 03:53:08;;;;;;;;;;;23.40;48.60;;;;;;5089260;28;20364;-56
2022/06/24 03:55:35;;;;;;;;;;;23.40;48.60;;;;;;5109542;27;19920;-55
2022/06/24 03:58:02;;;;;;;;;;;23.40;48.60;;;;;;5107835;28;19927;-57
2022/06/24 04:00:28;;;;;;;;;;;23.40;48.60;;;;;;5112820;27;19935;-55
2022/06/24 04:02:55;;;;;;;;;;;23.40;48.70;;;;;;5111830;28;20314;-52
2022/06/24 04:05:22;;;;;;;;;;;23.40;48.60;;;;;;5110446;27;19984;-56
2022/06/24 04:07:49;;;;;;;;;;;23.40;48.60;;;;;;5111712;27;19951;-52
2022/06/24 04:10:17;;;;;;;;;;;23.40;48.60;;;;;;5109040;28;19920;-54
2022/06/24 04:12:44;;;;;;;;;;;23.40;48.60;;;;;;5107978;28;19980;-55
2022/06/24 04:15:18;;;;;;;;;;;23.40;48.60;;;;;;5111468;27;19920;-55
2022/06/24 04:17:45;;;;;;;;;;;23.40;48.60;;;;;;5109010;27;20016;-56
2022/06/24 04:20:12;;;;;;;;;;;23.40;48.60;;;;;;5110825;28;19964;-56
2022/06/24 04:22:39;;;;;;;;;;;23.40;48.60;;;;;;5109943;27;20431;-55
2022/06/24 04:25:06;;;;;;;;;;;23.40;48.60;;;;;;5125328;27;19977;-56
2022/06/24 04:27:34;;;;;;;;;;;23.40;48.60;;;;;;5091599;28;20581;-56
2022/06/24 04:30:01;;;;;;;;;;;23.40;48.60;;;;;;5107363;27;19920;-57
2022/06/24 04:32:28;;;;;;;;;;;23.40;48.60;;;;;;5111426;27;19926;-56
2022/06/24 04:34:55;;;;;;;;;;;23.40;48.60;;;;;;5108795;28;20346;-56
2022/06/24 04:37:21;;;;;;;;;;;23.40;48.60;;;;;;5107544;28;19927;-54
2022/06/24 04:39:48;;;;;;;;;;;23.40;48.70;;;;;;5125580;27;19996;-53
2022/06/24 04:42:15;;;;;;;;;;;23.40;48.70;;;;;;5108444;27;20400;-56
2022/06/24 04:44:43;;;;;;;;;;;23.40;48.70;;;;;;5109934;27;19931;-54
2022/06/24 04:47:10;;;;;;;;;;;23.40;48.70;;;;;;5124568;27;19927;-56
2022/06/24 04:49:37;;;;;;;;;;;23.40;48.70;;;;;;5091250;28;19958;-56
2022/06/24 04:52:04;;;;;;;;;;;23.40;48.70;;;;;;5109490;27;19927;-54
2022/06/24 04:54:31;;;;;;;;;;;23.40;48.70;;;;;;5123590;27;19924;-56
2022/06/24 04:56:58;;;;;;;;;;;23.40;48.70;;;;;;5122366;27;19924;-56
2022/06/24 04:59:26;;;;;;;;;;;23.40;48.70;;;;;;5092892;28;20023;-55
2022/06/24 05:01:54;;;;;;;;;;;23.40;48.70;;;;;;5125700;27;19936;-56
2022/06/24 05:04:21;;;;;;;;;;;23.40;48.70;;;;;;5111493;28;19924;-56
2022/06/24 05:06:49;;;;;;;;;;;23.30;48.70;;;;;;5109827;28;19926;-56
2022/06/24 05:09:16;;;;;;;;;;;23.30;48.70;;;;;;5109248;28;19920;-56
2022/06/24 05:11:43;;;;;;;;;;;23.30;48.70;;;;;;5103419;27;19939;-56
2022/06/24 05:14:10;;;;;;;;;;;23.30;48.80;;;;;;5092175;28;19923;-57
2022/06/24 05:16:36;;;;;;;;;;;23.30;48.70;;;;;;5110448;27;19920;-56
2022/06/24 05:19:05;;;;;;;;;;;23.40;48.80;;;;;;5091038;28;19930;-54
2022/06/24 05:21:32;;;;;;;;;;;23.40;48.90;;;;;;5087198;28;20009;-54
2022/06/24 05:23:58;;;;;;;;;;;23.30;48.80;;;;;;5092842;27;19927;-55
2022/06/24 05:26:25;;;;;;;;;;;23.40;48.90;;;;;;5109817;27;19927;-56
2022/06/24 05:28:52;;;;;;;;;;;23.30;48.80;;;;;;5107975;28;19919;-55
2022/06/24 05:31:19;;;;;;;;;;;23.40;48.90;;;;;;5124827;27;19972;-57
2022/06/24 05:33:45;;;;;;;;;;;23.40;48.90;;;;;;5105274;28;19927;-57
2022/06/24 05:36:14;;;;;;;;;;;23.40;48.90;;;;;;5107066;28;19926;-55
2022/06/24 05:38:41;;;;;;;;;;;23.40;48.90;;;;;;5108154;27;19924;-57
2022/06/24 05:41:08;;;;;;;;;;;23.40;48.90;;;;;;5108705;27;19927;-56
2022/06/24 05:43:35;;;;;;;;;;;23.40;48.90;;;;;;5111906;27;19926;-57
2022/06/24 05:46:02;;;;;;;;;;;23.30;48.90;;;;;;5101258;28;19920;-56
2022/06/24 05:48:30;;;;;;;;;;;23.40;49.00;;;;;;5107704;28;19967;-55
2022/06/24 05:50:56;;;;;;;;;;;23.40;49.00;;;;;;5109593;27;19920;-55
2022/06/24 05:56:09;;;;;;;;;;;23.40;49.00;;;;;;5107563;28;19927;-56
2022/06/24 05:58:35;;;;;;;;;;;23.40;49.00;;;;;;5110175;28;19965;-56
2022/06/24 06:01:08;;;;;;;;;;;23.40;49.60;;;;;;5107595;28;20368;-57
2022/06/24 06:03:35;;;;;;;;;;;23.40;49.00;;;;;;5111094;27;19943;-55
2022/06/24 06:06:01;;;;;;;;;;;23.40;49.00;;;;;;5112180;27;19920;-56
2022/06/24 06:08:29;;;;;;;;;;;23.40;49.00;;;;;;5107501;27;19978;-58
2022/06/24 06:10:56;;;;;;;;;;;23.40;49.00;;;;;;5089272;28;19969;-56
2022/06/24 06:13:23;;;;;;;;;;;23.40;49.00;;;;;;5090352;28;19920;-57
2022/06/24 06:15:50;;;;;;;;;;;23.40;49.00;;;;;;5091091;28;19919;-56
2022/06/24 06:18:17;;;;;;;;;;;23.40;49.00;;;;;;5088853;28;20616;-57
2022/06/24 06:20:43;;;;;;;;;;;23.40;49.10;;;;;;5090384;27;19923;-54
2022/06/24 06:23:11;;;;;;;;;;;23.40;49.10;;;;;;5089348;28;19920;-57
2022/06/24 06:25:39;;;;;;;;;;;23.40;49.10;;;;;;5106192;28;19969;-57
2022/06/24 06:28:06;;;;;;;;;;;23.40;49.10;;;;;;5089826;27;20380;-54
2022/06/24 06:30:33;;;;;;;;;;;23.40;49.10;;;;;;5102959;28;20253;-55
2022/06/24 06:33:00;;;;;;;;;;;23.40;49.10;;;;;;5105407;28;20010;-55
2022/06/24 06:35:27;;;;;;;;;;;23.40;49.10;;;;;;5088918;28;19935;-55
2022/06/24 06:37:54;;;;;;;;;;;23.40;49.10;;;;;;5101850;27;19993;-55
2022/06/24 06:40:21;;;;;;;;;;;23.40;49.10;;;;;;5104977;27;19926;-56
2022/06/24 06:42:52;;;;;;;;;;;23.40;49.10;;;;;;5089074;28;20281;-59
2022/06/24 06:45:19;;;;;;;;;;;23.40;49.10;;;;;;5089063;28;20320;-55
2022/06/24 06:47:46;;;;;;;;;;;23.40;49.10;;;;;;5090712;27;19920;-55
2022/06/24 06:50:13;;;;;;;;;;;23.40;49.00;;;;;;5109053;27;19920;-58
2022/06/24 06:52:39;;;;;;;;;;;23.40;49.00;;;;;;5108221;28;19926;-56
2022/06/24 06:55:06;;;;;;;;;;;23.40;49.00;;;;;;5090617;28;19977;-56
2022/06/24 06:57:33;;;;;;;;;;;23.40;49.10;;;;;;5104647;28;19923;-57
2022/06/24 07:00:02;;;;;;;;;;;23.40;49.10;;;;;;5086958;28;19927;-55
2022/06/24 07:02:28;;;;;;;;;;;23.40;49.10;;;;;;5103052;28;19923;-58
2022/06/24 07:04:55;;;;;;;;;;;23.40;49.10;;;;;;5088805;28;20012;-56
2022/06/24 07:07:22;;;;;;;;;;;23.40;49.10;;;;;;5106069;28;19934;-57
2022/06/24 07:09:49;;;;;;;;;;;23.50;49.20;;;;;;5088867;28;19920;-55
2022/06/24 07:12:15;;;;;;;;;;;23.50;49.20;;;;;;5108846;28;19988;-56
2022/06/24 07:14:42;;;;;;;;;;;23.50;49.30;;;;;;5110349;27;19927;-57
2022/06/24 07:17:10;;;;;;;;;;;23.50;49.20;;;;;;5126048;27;19932;-57
2022/06/24 07:19:37;;;;;;;;;;;23.50;49.20;;;;;;5110047;28;19924;-56
2022/06/24 07:22:04;;;;;;;;;;;23.50;49.20;;;;;;5112109;27;19948;-57
2022/06/24 07:24:31;;;;;;;;;;;23.50;49.20;;;;;;5094241;27;19932;-56
2022/06/24 07:26:58;;;;;;;;;;;23.50;49.20;;;;;;5108812;28;19934;-57
2022/06/24 07:29:24;;;;;;;;;;;23.50;49.20;;;;;;5092357;28;19924;-58
2022/06/24 07:31:51;;;;;;;;;;;23.50;49.20;;;;;;5108580;28;19919;-54
2022/06/24 07:34:19;;;;;;;;;;;23.50;49.20;;;;;;5093243;28;20313;-57
2022/06/24 07:36:46;;;;;;;;;;;23.50;49.20;;;;;;5092229;28;19930;-58
2022/06/24 07:39:13;;;;;;;;;;;23.50;49.20;;;;;;5110974;27;19969;-57
2022/06/24 07:41:40;;;;;;;;;;;23.50;49.20;;;;;;5111891;27;19966;-58
2022/06/24 07:44:07;;;;;;;;;;;23.50;49.20;;;;;;5125999;27;19920;-57
2022/06/24 07:46:33;;;;;;;;;;;23.50;49.20;;;;;;5108573;28;19977;-54
2022/06/24 07:49:00;;;;;;;;;;;23.50;49.20;;;;;;5109908;27;19932;-57
2022/06/24 07:51:28;;;;;;;;;;;23.50;49.20;;;;;;5128913;27;20022;-56
2022/06/24 07:53:55;;;;;;;;;;;23.50;49.20;;;;;;5107606;28;19943;-57
2022/06/24 07:59:06;;;;;;;;;;;23.50;49.10;;;;;;5124784;27;20456;-57
2022/06/24 08:01:33;;;;;;;;;;;23.50;49.10;;;;;;5109621;28;20082;-56
2022/06/24 08:04:00;;;;;;;;;;;23.50;49.10;;;;;;5111959;28;19959;-57
2022/06/24 08:06:28;;;;;;;;;;;23.50;49.10;;;;;;5108203;28;19924;-57
2022/06/24 08:08:55;;;;;;;;;;;23.60;49.20;;;;;;5117944;28;19966;-57
2022/06/24 08:11:21;;;;;;;;;;;23.60;49.20;;;;;;5131062;27;19926;-57
2022/06/24 08:13:48;;;;;;;;;;;23.60;49.40;;;;;;5115690;28;19924;-57
2022/06/24 08:16:15;;;;;;;;;;;23.60;49.60;;;;;;5091378;28;19938;-58
2022/06/24 08:18:42;;;;;;;;;;;23.60;49.80;;;;;;5093189;28;20441;-59
2022/06/24 08:21:08;;;;;;;;;;;23.60;49.80;;;;;;5110468;27;19920;-57
2022/06/24 08:23:36;;;;;;;;;;;23.60;49.80;;;;;;5090473;28;19923;-58
2022/06/24 08:26:03;;;;;;;;;;;23.60;49.90;;;;;;5114754;27;19966;-56
2022/06/24 08:28:30;;;;;;;;;;;23.60;49.90;;;;;;5093246;28;20022;-56
2022/06/24 08:30:56;;;;;;;;;;;23.70;50.00;;;;;;5109522;28;19963;-58
2022/06/24 08:33:24;;;;;;;;;;;23.70;50.00;;;;;;5107886;27;20400;-56
2022/06/24 08:35:51;;;;;;;;;;;23.70;49.90;;;;;;5111167;28;19955;-57
2022/06/24 08:38:17;;;;;;;;;;;23.70;49.80;;;;;;5108094;27;19989;-58
2022/06/24 08:40:45;;;;;;;;;;;23.80;49.80;;;;;;5125943;27;19965;-57
2022/06/24 08:43:12;;;;;;;;;;;23.80;49.80;;;;;;5111885;27;19920;-57
2022/06/24 08:45:39;;;;;;;;;;;23.80;49.80;;;;;;5126277;27;20018;-59
2022/06/24 08:48:07;;;;;;;;;;;23.80;49.70;;;;;;5092027;28;19934;-58
2022/06/24 08:50:34;;;;;;;;;;;23.80;49.80;;;;;;5092253;28;19924;-56
2022/06/24 08:53:02;;;;;;;;;;;23.80;49.80;;;;;;5109960;28;20024;-58
2022/06/24 08:55:29;;;;;;;;;;;23.80;49.80;;;;;;5110939;27;19932;-58
2022/06/24 08:57:57;;;;;;;;;;;23.80;49.70;;;;;;5104480;28;19923;-57
2022/06/24 09:00:24;;;;;;;;;;;23.90;49.90;;;;;;5090746;28;19927;-57
2022/06/24 09:02:51;;;;;;;;;;;23.90;49.90;;;;;;5091839;27;20012;-58
2022/06/24 09:05:17;;;;;;;;;;;23.90;49.80;;;;;;5086448;28;19990;-58
2022/06/24 09:07:44;;;;;;;;;;;23.90;49.80;;;;;;5108100;27;19924;-58
2022/06/24 09:10:12;;;;;;;;;;;23.90;49.80;;;;;;5090701;28;20254;-56
2022/06/24 09:12:39;;;;;;;;;;;24.00;49.80;;;;;;5091404;28;19920;-57
2022/06/24 09:15:08;;;;;;;;;;;24.00;49.70;;;;;;5107642;28;19928;-59
2022/06/24 09:17:37;;;;;;;;;;;24.00;49.80;;;;;;5106167;27;20265;-57
2022/06/24 09:20:04;;;;;;;;;;;24.00;49.90;;;;;;5109144;28;20284;-57
2022/06/24 09:22:31;;;;;;;;;;;24.00;49.90;;;;;;5107508;28;19927;-57
2022/06/24 09:24:58;;;;;;;;;;;24.00;49.70;;;;;;5092639;28;19932;-58
2022/06/24 09:27:26;;;;;;;;;;;24.10;49.90;;;;;;5107678;28;19973;-55
2022/06/24 09:29:53;;;;;;;;;;;24.10;49.80;;;;;;5107939;28;20268;-58
2022/06/24 09:32:22;;;;;;;;;;;24.10;49.70;;;;;;5105005;28;19919;-58
2022/06/24 09:34:58;;;;;;;;;;;24.10;49.70;;;;;;5105485;28;19930;-59
2022/06/24 09:37:38;;;;;;;;;;;24.10;50.00;;;;;;5091764;28;20042;-56
2022/06/24 09:40:17;;;;;;;;;;;24.10;49.90;;;;;;5107141;28;19972;-56
2022/06/24 09:42:44;;;;;;;;;;;24.20;49.90;;;;;;5120891;27;19924;-58
2022/06/24 09:45:11;;;;;;;;;;;24.20;49.90;;;;;;5106086;28;19924;-59
2022/06/24 09:47:47;;;;;;;;;;;24.20;49.80;;;;;;5108628;27;19926;-58
2022/06/24 09:50:14;;;;;;;;;;;24.20;49.80;;;;;;5107100;27;19920;-58
2022/06/24 09:52:41;;;;;;;;;;;24.20;49.80;;;;;;5107040;27;20390;-58
2022/06/24 09:55:08;;;;;;;;;;;24.20;49.80;;;;;;5106464;27;20004;-58
2022/06/24 09:57:35;;;;;;;;;;;24.20;49.80;;;;;;5106609;28;19920;-59
2022/06/24 10:02:53;;;;;;;;;;;24.30;49.90;;;;;;5085945;27;19920;-56
2022/06/24 10:05:20;;;;;;;;;;;24.30;49.80;;;;;;5085578;28;20223;-57
2022/06/24 10:07:47;;;;;;;;;;;24.30;49.80;;;;;;5100760;27;19924;-57
2022/06/24 10:10:14;;;;;;;;;;;24.30;49.90;;;;;;5086411;28;19950;-58
2022/06/24 10:12:41;;;;;;;;;;;24.30;49.90;;;;;;5090671;28;19920;-57
2022/06/24 10:15:08;;;;;;;;;;;24.30;50.00;;;;;;5092155;28;19980;-59
2022/06/24 10:17:35;;;;;;;;;;;24.40;49.90;;;;;;5090469;28;19959;-58
2022/06/24 10:20:03;;;;;;;;;;;24.40;49.80;;;;;;5090766;28;20381;-59
2022/06/24 10:22:37;;;;;;;;;;;24.40;49.80;;;;;;5107207;28;20288;-57
2022/06/24 10:25:03;;;;;;;;;;;24.50;49.90;;;;;;5084325;28;19931;-56
2022/06/24 10:27:45;;;;;;;;;;;24.50;49.80;;;;;;5126291;27;19919;-58
2022/06/24 10:30:12;;;;;;;;;;;24.50;49.90;;;;;;5080728;28;20418;-57
2022/06/24 10:32:39;;;;;;;;;;;24.60;49.90;;;;;;5103903;28;19928;-58
2022/06/24 10:35:07;;;;;;;;;;;24.60;49.90;;;;;;5105752;28;19920;-59
2022/06/24 10:37:36;;;;;;;;;;;24.60;49.90;;;;;;5102187;27;19920;-57
2022/06/24 10:40:04;;;;;;;;;;;24.60;50.00;;;;;;5089787;28;19920;-57
2022/06/24 10:42:33;;;;;;;;;;;24.70;50.00;;;;;;5106716;27;20329;-58
2022/06/24 10:45:00;;;;;;;;;;;24.70;49.90;;;;;;5104825;27;19986;-58
2022/06/24 10:47:31;;;;;;;;;;;24.70;49.90;;;;;;5104884;28;19930;-58
2022/06/24 10:50:22;;;;;;;;;;;24.70;50.50;;;;;;5101636;28;20361;-58
2022/06/24 10:53:00;;;;;;;;;;;24.70;49.90;;;;;;5082750;28;20261;-58
2022/06/24 10:55:30;;;;;;;;;;;24.70;50.10;;;;;;5101180;28;20011;-58
2022/06/24 10:57:59;;;;;;;;;;;24.70;50.00;;;;;;5120673;27;22934;-58
2022/06/24 11:00:26;;;;;;;;;;;24.70;50.00;;;;;;5116023;27;20361;-58
2022/06/24 11:02:54;;;;;;;;;;;24.70;50.00;;;;;;5120435;27;19920;-57
2022/06/24 11:05:23;;;;;;;;;;;24.70;50.00;;;;;;5101471;28;19920;-57
2022/06/24 11:07:51;;;;;;;;;;;24.70;50.20;;;;;;5106456;27;19923;-56
2022/06/24 11:10:20;;;;;;;;;;;24.80;50.20;;;;;;5101148;28;19934;-57
2022/06/24 11:12:48;;;;;;;;;;;24.80;50.10;;;;;;5092246;28;20398;-59
2022/06/24 11:15:15;;;;;;;;;;;24.80;50.10;;;;;;5106235;28;19919;-58
2022/06/24 11:17:42;;;;;;;;;;;24.80;50.10;;;;;;5094749;27;19919;-58
2022/06/24 11:20:09;;;;;;;;;;;24.80;50.10;;;;;;5124698;27;20283;-58
2022/06/24 11:22:41;;;;;;;;;;;24.80;50.10;;;;;;5094270;28;19942;-58
2022/06/24 11:25:09;;;;;;;;;;;24.80;50.00;;;;;;5102020;28;19920;-58
2022/06/24 11:27:37;;;;;;;;;;;24.80;50.00;;;;;;5104402;28;20279;-57
2022/06/24 11:30:04;;;;;;;;;;;24.80;50.00;;;;;;5095720;28;19919;-58
2022/06/24 11:32:44;;;;;;;;;;;24.80;49.90;;;;;;5094238;28;19955;-58
2022/06/24 11:35:12;;;;;;;;;;;24.90;50.00;;;;;;5122344;27;19955;-58
2022/06/24 11:37:39;;;;;;;;;;;24.90;50.00;;;;;;5096378;28;20446;-58
2022/06/24 11:40:06;;;;;;;;;;;24.90;49.90;;;;;;5104866;28;19977;-59
2022/06/24 11:42:33;;;;;;;;;;;24.90;49.90;;;;;;5106591;28;20331;-58
2022/06/24 11:45:01;;;;;;;;;;;24.90;49.90;;;;;;5088076;28;19928;-57
2022/06/24 11:47:31;;;;;;;;;;;24.80;49.80;;;;;;5105556;28;19966;-57
2022/06/24 11:49:58;;;;;;;;;;;24.80;49.80;;;;;;5106258;28;20618;-58
2022/06/24 11:52:25;;;;;;;;;;;24.80;49.80;;;;;;5101232;28;19920;-56
2022/06/24 11:54:52;;;;;;;;;;;24.80;49.80;;;;;;5111646;28;19923;-58
2022/06/24 11:57:21;;;;;;;;;;;24.80;49.80;;;;;;5092124;28;19924;-58
2022/06/24 11:59:47;;;;;;;;;;;24.80;49.80;;;;;;5096242;28;19974;-58
2022/06/24 12:02:16;;;;;;;;;;;24.70;49.80;;;;;;5106790;27;19920;-56
2022/06/24 12:04:43;;;;;;;;;;;24.70;49.90;;;;;;5117981;27;19919;-59
2022/06/24 12:07:10;;;;;;;;;;;24.70;50.00;;;;;;5096999;28;19920;-58
2022/06/24 12:09:37;;;;;;;;;;;24.70;50.10;;;;;;5112734;27;19924;-56
2022/06/24 12:12:10;;;;;;;;;;;24.70;50.10;;;;;;5115658;27;20340;-59
2022/06/24 12:14:37;;;;;;;;;;;24.70;50.30;;;;;;5094362;27;19959;-59
2022/06/24 12:17:06;;;;;;;;;;;24.60;50.30;;;;;;5102745;27;19920;-59
2022/06/24 12:19:34;;;;;;;;;;;24.60;50.60;;;;;;5110663;27;20254;-58
2022/06/24 12:22:05;;;;;;;;;;;24.60;50.80;;;;;;5091421;28;19926;-59
2022/06/24 12:24:32;;;;;;;;;;;24.60;50.90;;;;;;5127131;27;20364;-58
2022/06/24 12:27:00;;;;;;;;;;;24.60;51.10;;;;;;5106598;27;19982;-58
2022/06/24 12:29:27;;;;;;;;;;;24.60;51.20;;;;;;5104604;27;20439;-59
2022/06/24 12:31:54;;;;;;;;;;;24.60;51.20;;;;;;5108360;27;20280;-58
2022/06/24 12:34:27;;;;;;;;;;;24.60;51.40;;;;;;5111978;27;20059;-57
2022/06/24 12:36:59;;;;;;;;;;;24.60;51.40;;;;;;5104266;27;19920;-58
2022/06/24 12:39:30;;;;;;;;;;;24.60;51.50;;;;;;5116020;27;19982;-56
2022/06/24 12:41:56;;;;;;;;;;;24.60;51.50;;;;;;5088807;27;19939;-58
2022/06/24 12:44:23;;;;;;;;;;;24.60;51.60;;;;;;5113331;27;20375;-58
2022/06/24 12:52:31;;;;;;;;;;;24.60;51.90;;;;;;5132481;27;19930;-59
2022/06/24 12:54:58;;;;;;;;;;;24.60;51.90;;;;;;5107512;28;19959;-58
2022/06/24 12:57:25;;;;;;;;;;;24.50;51.90;;;;;;5108960;27;19927;-58
2022/06/24 12:59:52;;;;;;;;;;;24.50;51.90;;;;;;5096949;27;19920;-58
2022/06/24 13:02:18;;;;;;;;;;;24.50;51.90;;;;;;5099037;28;19932;-58
2022/06/24 13:04:45;;;;;;;;;;;24.50;52.00;;;;;;5125171;27;20312;-57
2022/06/24 13:07:12;;;;;;;;;;;24.50;52.00;;;;;;5107854;27;19919;-57
2022/06/24 13:09:40;;;;;;;;;;;24.50;52.10;;;;;;5116385;27;19946;-57
2022/06/24 13:12:07;;;;;;;;;;;24.50;52.10;;;;;;5103665;28;19919;-58
2022/06/24 13:14:34;;;;;;;;;;;24.50;52.20;;;;;;5093172;27;20627;-58
2022/06/24 13:17:00;;;;;;;;;;;24.50;52.90;;;;;;5122130;27;19924;-58
2022/06/24 13:19:27;;;;;;;;;;;24.50;52.30;;;;;;5110258;28;20356;-58
2022/06/24 13:21:54;;;;;;;;;;;24.50;52.40;;;;;;5108413;27;20324;-57
2022/06/24 13:24:21;;;;;;;;;;;24.50;52.40;;;;;;5102912;28;20310;-56
2022/06/24 13:26:49;;;;;;;;;;;24.50;52.40;;;;;;5131809;27;19927;-58
2022/06/24 13:29:16;;;;;;;;;;;24.50;52.70;;;;;;5108224;28;20113;-56
2022/06/24 13:31:43;;;;;;;;;;;24.50;53.10;;;;;;5107932;27;19935;-58
2022/06/24 13:34:09;;;;;;;;;;;24.50;53.90;;;;;;5106603;27;19920;-58
2022/06/24 13:36:36;;;;;;;;;;;24.50;54.10;;;;;;5126815;27;19966;-57
2022/06/24 13:39:03;;;;;;;;;;;24.50;54.50;;;;;;5101081;27;20360;-56
2022/06/24 13:41:31;;;;;;;;;;;24.50;54.80;;;;;;5092239;28;19935;-57
2022/06/24 13:43:59;;;;;;;;;;;24.50;55.50;;;;;;5110953;27;19920;-57
2022/06/24 13:46:26;;;;;;;;;;;24.50;55.00;;;;;;5108731;27;19924;-57
2022/06/24 13:48:56;;;;;;;;;;;24.60;55.00;;;;;;5107817;28;19920;-58
2022/06/24 13:51:23;;;;;;;;;;;24.60;55.20;;;;;;5102652;27;19927;-57
2022/06/24 13:53:52;;;;;;;;;;;24.60;55.40;;;;;;5091894;28;19924;-57
2022/06/24 13:56:19;;;;;;;;;;;24.60;55.50;;;;;;5109279;27;19927;-59
2022/06/24 13:58:47;;;;;;;;;;;24.60;55.40;;;;;;5111602;27;19931;-57
2022/06/24 14:01:15;;;;;;;;;;;24.60;55.60;;;;;;5113654;27;20453;-60
2022/06/24 14:03:42;;;;;;;;;;;24.60;55.50;;;;;;5105244;27;20279;-57
2022/06/24 14:06:09;;;;;;;;;;;24.60;55.60;;;;;;5105895;27;19923;-58
2022/06/24 14:08:36;;;;;;;;;;;24.60;55.50;;;;;;5108210;27;19924;-58
2022/06/24 14:11:04;;;;;;;;;;;24.60;55.60;;;;;;5109359;27;19920;-58
2022/06/24 14:13:31;;;;;;;;;;;24.60;55.40;;;;;;5112564;27;19926;-59
2022/06/24 14:15:58;;;;;;;;;;;24.60;55.60;;;;;;5105152;27;19967;-56
2022/06/24 14:18:26;;;;;;;;;;;24.60;55.80;;;;;;5108055;27;19932;-57
2022/06/24 14:20:53;;;;;;;;;;;24.60;55.80;;;;;;5115910;27;19919;-58
2022/06/24 14:26:03;;;;;;;;;;;24.60;55.70;;;;;;5077192;27;19926;-58
2022/06/24 14:28:29;;;;;;;;;;;24.60;55.90;;;;;;5093305;28;19920;-58
2022/06/24 14:30:56;;;;;;;;;;;24.60;55.80;;;;;;5110733;27;19927;-58
2022/06/24 14:33:23;;;;;;;;;;;24.60;55.90;;;;;;5108463;27;19968;-57
2022/06/24 14:35:51;;;;;;;;;;;24.60;56.10;;;;;;5107490;27;19958;-57
2022/06/24 14:41:02;;;;;;;;;;;24.60;56.40;;;;;;5107967;28;20311;-56